sensor_id;sensor_type;location;lat;lon;timestamp;pressure;altitude;pressure_sealevel;temperature;humidity
31681;BME280;18281;51.364;9.566;2022-08-06T00:00:39;100740.06;;;9.86;100.00
31681;BME280;18281;51.364;9.566;2022-08-06T00:03:07;100732.03;;;9.69;100.00
31681;BME280;18281;51.364;9.566;2022-08-06T00:05:32;100747.81;;;9.21;100.00
31681;BME280;18281;51.364;9.566;2022-08-06T00:07:58;100753.75;;;9.27;100.00
31681;BME280;18281;51.364;9.566;2022-08-06T00:10:24;100759.13;;;9.00;100.00
31681;BME280;18281;51.364;9.566;2022-08-06T00:12:49;100766.03;;;9.01;100.00
31681;BME280;18281;51.364;9.566;2022-08-06T00:15:16;100772.84;;;9.06;100.00
31681;BME280;18281;51.364;9.566;2022-08-06T00:17:45;100772.34;;;9.42;100.00
31681;BME280;18281;51.364;9.566;2022-08-06T00:20:14;100769.84;;;9.63;100.00
31681;BME280;18281;51.364;9.566;2022-08-06T00:22:40;100768.66;;;9.24;100.00
31681;BME280;18281;51.364;9.566;2022-08-06T00:25:06;100765.22;;;9.22;100.00
31681;BME280;18281;51.364;9.566;2022-08-06T00:27:39;100776.84;;;8.68;100.00
31681;BME280;18281;51.364;9.566;2022-08-06T00:30:06;100779.38;;;9.18;100.00
31681;BME280;18281;51.364;9.566;2022-08-06T00:32:32;100774.72;;;9.03;100.00
31681;BME280;18281;51.364;9.566;2022-08-06T00:34:57;100780.03;;;8.76;100.00
31681;BME280;18281;51.364;9.566;2022-08-06T00:37:23;100785.03;;;8.58;100.00
31681;BME280;18281;51.364;9.566;2022-08-06T00:39:48;100792.94;;;8.57;100.00
31681;BME280;18281;51.364;9.566;2022-08-06T00:42:14;100790.63;;;8.73;100.00
31681;BME280;18281;51.364;9.566;2022-08-06T00:44:40;100793.72;;;8.84;100.00
31681;BME280;18281;51.364;9.566;2022-08-06T00:47:05;100791.81;;;9.13;100.00
31681;BME280;18281;51.364;9.566;2022-08-06T00:49:31;100790.88;;;9.14;100.00
31681;BME280;18281;51.364;9.566;2022-08-06T00:51:56;100792.47;;;8.95;100.00
31681;BME280;18281;51.364;9.566;2022-08-06T00:54:22;100794.66;;;8.82;100.00
31681;BME280;18281;51.364;9.566;2022-08-06T00:56:48;100798.19;;;8.81;100.00
31681;BME280;18281;51.364;9.566;2022-08-06T00:59:13;100814.09;;;8.22;100.00
31681;BME280;18281;51.364;9.566;2022-08-06T01:01:39;100813.09;;;8.27;100.00
31681;BME280;18281;51.364;9.566;2022-08-06T01:04:04;100811.97;;;8.34;100.00
31681;BME280;18281;51.364;9.566;2022-08-06T01:06:30;100807.56;;;8.63;100.00
31681;BME280;18281;51.364;9.566;2022-08-06T01:08:56;100813.19;;;8.77;100.00
31681;BME280;18281;51.364;9.566;2022-08-06T01:11:21;100810.66;;;8.74;100.00
31681;BME280;18281;51.364;9.566;2022-08-06T01:13:47;100814.66;;;8.32;100.00
31681;BME280;18281;51.364;9.566;2022-08-06T01:16:32;100814.44;;;8.65;100.00
31681;BME280;18281;51.364;9.566;2022-08-06T01:24:59;100815.88;;;8.49;100.00
31681;BME280;18281;51.364;9.566;2022-08-06T01:27:54;100820.06;;;8.54;100.00
31681;BME280;18281;51.364;9.566;2022-08-06T01:30:26;100823.88;;;8.44;100.00
31681;BME280;18281;51.364;9.566;2022-08-06T01:33:09;100827.38;;;8.70;100.00
31681;BME280;18281;51.364;9.566;2022-08-06T01:35:44;100823.28;;;8.36;100.00
31681;BME280;18281;51.364;9.566;2022-08-06T01:38:32;100829.50;;;8.58;100.00
31681;BME280;18281;51.364;9.566;2022-08-06T01:41:02;100819.56;;;8.68;100.00
31681;BME280;18281;51.364;9.566;2022-08-06T01:43:29;100830.38;;;8.04;100.00
31681;BME280;18281;51.364;9.566;2022-08-06T01:45:57;100833.25;;;7.96;100.00
31681;BME280;18281;51.364;9.566;2022-08-06T01:48:26;100839.34;;;7.97;100.00
31681;BME280;18281;51.364;9.566;2022-08-06T01:50:54;100841.97;;;8.23;100.00
31681;BME280;18281;51.364;9.566;2022-08-06T01:53:27;100846.78;;;8.09;100.00
31681;BME280;18281;51.364;9.566;2022-08-06T01:55:57;100845.19;;;8.05;100.00
31681;BME280;18281;51.364;9.566;2022-08-06T01:58:30;100845.03;;;8.10;100.00
31681;BME280;18281;51.364;9.566;2022-08-06T02:00:58;100847.97;;;7.70;100.00
31681;BME280;18281;51.364;9.566;2022-08-06T02:03:35;100856.72;;;7.69;100.00
31681;BME280;18281;51.364;9.566;2022-08-06T02:06:04;100856.03;;;7.63;100.00
31681;BME280;18281;51.364;9.566;2022-08-06T02:08:33;100849.75;;;7.70;100.00
31681;BME280;18281;51.364;9.566;2022-08-06T02:11:00;100853.88;;;7.77;100.00
31681;BME280;18281;51.364;9.566;2022-08-06T02:13:30;100857.53;;;7.71;100.00
31681;BME280;18281;51.364;9.566;2022-08-06T02:15:58;100862.72;;;7.73;100.00
31681;BME280;18281;51.364;9.566;2022-08-06T02:18:27;100859.53;;;7.91;100.00
31681;BME280;18281;51.364;9.566;2022-08-06T02:20:54;100865.09;;;7.81;100.00
31681;BME280;18281;51.364;9.566;2022-08-06T02:23:23;100875.13;;;7.35;100.00
31681;BME280;18281;51.364;9.566;2022-08-06T02:25:51;100876.06;;;7.64;100.00
31681;BME280;18281;51.364;9.566;2022-08-06T02:28:19;100876.50;;;7.78;100.00
31681;BME280;18281;51.364;9.566;2022-08-06T02:30:49;100881.69;;;7.80;100.00
31681;BME280;18281;51.364;9.566;2022-08-06T02:33:16;100878.09;;;7.52;100.00
31681;BME280;18281;51.364;9.566;2022-08-06T02:35:54;100883.94;;;7.31;100.00
31681;BME280;18281;51.364;9.566;2022-08-06T02:38:28;100888.13;;;7.05;100.00
31681;BME280;18281;51.364;9.566;2022-08-06T02:41:00;100882.53;;;7.50;100.00
31681;BME280;18281;51.364;9.566;2022-08-06T02:43:34;100879.66;;;7.60;100.00
31681;BME280;18281;51.364;9.566;2022-08-06T02:46:10;100883.41;;;7.79;100.00
31681;BME280;18281;51.364;9.566;2022-08-06T02:48:42;100877.84;;;7.91;100.00
31681;BME280;18281;51.364;9.566;2022-08-06T02:51:12;100883.38;;;7.51;100.00
31681;BME280;18281;51.364;9.566;2022-08-06T02:53:54;100890.91;;;7.32;100.00
31681;BME280;18281;51.364;9.566;2022-08-06T02:56:22;100891.16;;;7.54;100.00
31681;BME280;18281;51.364;9.566;2022-08-06T02:58:51;100891.41;;;7.45;100.00
31681;BME280;18281;51.364;9.566;2022-08-06T03:01:21;100895.59;;;7.50;100.00
31681;BME280;18281;51.364;9.566;2022-08-06T03:03:51;100898.84;;;7.58;100.00
31681;BME280;18281;51.364;9.566;2022-08-06T03:06:18;100899.22;;;7.76;100.00
31681;BME280;18281;51.364;9.566;2022-08-06T03:08:46;100906.53;;;7.65;100.00
31681;BME280;18281;51.364;9.566;2022-08-06T03:11:13;100905.91;;;7.56;100.00
31681;BME280;18281;51.364;9.566;2022-08-06T03:13:42;100911.69;;;7.36;100.00
31681;BME280;18281;51.364;9.566;2022-08-06T03:16:09;100915.44;;;7.26;100.00
31681;BME280;18281;51.364;9.566;2022-08-06T03:18:36;100916.50;;;7.80;100.00
31681;BME280;18281;51.364;9.566;2022-08-06T03:21:03;100910.44;;;7.80;100.00
31681;BME280;18281;51.364;9.566;2022-08-06T03:23:31;100914.41;;;7.63;100.00
31681;BME280;18281;51.364;9.566;2022-08-06T03:25:57;100923.31;;;7.56;100.00
31681;BME280;18281;51.364;9.566;2022-08-06T03:28:25;100923.22;;;7.59;100.00
31681;BME280;18281;51.364;9.566;2022-08-06T03:30:51;100925.34;;;7.76;100.00
31681;BME280;18281;51.364;9.566;2022-08-06T03:33:18;100925.72;;;7.64;100.00
31681;BME280;18281;51.364;9.566;2022-08-06T03:35:45;100935.16;;;7.38;100.00
31681;BME280;18281;51.364;9.566;2022-08-06T03:38:12;100942.75;;;7.46;100.00
31681;BME280;18281;51.364;9.566;2022-08-06T03:40:39;100955.38;;;6.97;100.00
31681;BME280;18281;51.364;9.566;2022-08-06T03:43:07;100945.84;;;7.29;100.00
31681;BME280;18281;51.364;9.566;2022-08-06T03:45:46;100942.84;;;7.43;100.00
31681;BME280;18281;51.364;9.566;2022-08-06T03:48:17;100935.94;;;7.40;100.00
31681;BME280;18281;51.364;9.566;2022-08-06T03:50:47;100928.72;;;7.50;100.00
31681;BME280;18281;51.364;9.566;2022-08-06T03:53:23;100939.72;;;7.30;100.00
31681;BME280;18281;51.364;9.566;2022-08-06T03:55:52;100943.38;;;7.22;100.00
31681;BME280;18281;51.364;9.566;2022-08-06T03:58:19;100950.69;;;7.10;100.00
31681;BME280;18281;51.364;9.566;2022-08-06T04:00:56;100962.22;;;7.01;100.00
31681;BME280;18281;51.364;9.566;2022-08-06T04:03:24;100953.75;;;7.26;100.00
31681;BME280;18281;51.364;9.566;2022-08-06T04:05:49;100950.44;;;7.19;100.00
31681;BME280;18281;51.364;9.566;2022-08-06T04:08:15;100948.50;;;7.58;100.00
31681;BME280;18281;51.364;9.566;2022-08-06T04:10:46;100953.97;;;7.18;100.00
31681;BME280;18281;51.364;9.566;2022-08-06T04:13:14;100956.75;;;7.45;100.00
31681;BME280;18281;51.364;9.566;2022-08-06T04:15:41;100964.19;;;7.26;100.00
31681;BME280;18281;51.364;9.566;2022-08-06T04:18:08;100965.72;;;7.34;100.00
31681;BME280;18281;51.364;9.566;2022-08-06T04:20:35;100977.47;;;7.18;100.00
31681;BME280;18281;51.364;9.566;2022-08-06T04:23:01;100981.00;;;7.15;100.00
31681;BME280;18281;51.364;9.566;2022-08-06T04:25:28;100984.59;;;7.11;100.00
31681;BME280;18281;51.364;9.566;2022-08-06T04:27:57;100983.66;;;7.14;100.00
31681;BME280;18281;51.364;9.566;2022-08-06T04:30:24;100993.13;;;6.82;100.00
31681;BME280;18281;51.364;9.566;2022-08-06T04:32:54;101001.72;;;6.85;100.00
31681;BME280;18281;51.364;9.566;2022-08-06T04:35:21;100999.00;;;6.90;100.00
31681;BME280;18281;51.364;9.566;2022-08-06T04:37:47;101008.22;;;7.06;100.00
31681;BME280;18281;51.364;9.566;2022-08-06T04:40:13;101009.13;;;7.04;100.00
31681;BME280;18281;51.364;9.566;2022-08-06T04:42:40;101009.75;;;7.15;100.00
31681;BME280;18281;51.364;9.566;2022-08-06T04:45:11;101015.81;;;7.16;100.00
31681;BME280;18281;51.364;9.566;2022-08-06T04:47:38;101016.31;;;6.94;100.00
31681;BME280;18281;51.364;9.566;2022-08-06T04:50:04;101020.28;;;7.11;100.00
31681;BME280;18281;51.364;9.566;2022-08-06T04:52:30;101015.06;;;7.11;100.00
31681;BME280;18281;51.364;9.566;2022-08-06T04:54:55;101021.38;;;7.02;100.00
31681;BME280;18281;51.364;9.566;2022-08-06T04:57:21;101030.34;;;6.90;100.00
31681;BME280;18281;51.364;9.566;2022-08-06T04:59:47;101028.16;;;7.09;100.00
31681;BME280;18281;51.364;9.566;2022-08-06T05:02:12;101031.66;;;7.08;100.00
31681;BME280;18281;51.364;9.566;2022-08-06T05:04:38;101033.03;;;7.24;100.00
31681;BME280;18281;51.364;9.566;2022-08-06T05:07:20;101022.16;;;7.40;100.00
31681;BME280;18281;51.364;9.566;2022-08-06T05:09:47;101031.41;;;7.19;100.00
31681;BME280;18281;51.364;9.566;2022-08-06T05:12:39;101036.94;;;7.41;100.00
31681;BME280;18281;51.364;9.566;2022-08-06T05:15:21;101032.69;;;7.37;100.00
31681;BME280;18281;51.364;9.566;2022-08-06T05:18:04;101031.63;;;7.44;100.00
31681;BME280;18281;51.364;9.566;2022-08-06T05:20:34;101033.91;;;7.23;100.00
31681;BME280;18281;51.364;9.566;2022-08-06T05:23:08;101029.28;;;7.68;100.00
31681;BME280;18281;51.364;9.566;2022-08-06T05:25:37;101043.22;;;8.30;100.00
31681;BME280;18281;51.364;9.566;2022-08-06T05:28:07;101050.00;;;8.67;100.00
31681;BME280;18281;51.364;9.566;2022-08-06T05:30:32;101038.97;;;8.85;100.00
31681;BME280;18281;51.364;9.566;2022-08-06T05:32:58;101043.59;;;9.04;100.00
31681;BME280;18281;51.364;9.566;2022-08-06T05:35:24;101034.44;;;9.17;100.00
31681;BME280;18281;51.364;9.566;2022-08-06T05:37:50;101038.38;;;9.31;100.00
31681;BME280;18281;51.364;9.566;2022-08-06T05:40:15;101032.84;;;9.38;100.00
31681;BME280;18281;51.364;9.566;2022-08-06T05:42:41;101027.84;;;9.57;100.00
31681;BME280;18281;51.364;9.566;2022-08-06T05:45:10;101031.19;;;9.61;100.00
31681;BME280;18281;51.364;9.566;2022-08-06T05:47:36;101028.13;;;9.75;100.00
31681;BME280;18281;51.364;9.566;2022-08-06T05:50:08;101032.97;;;9.86;100.00
31681;BME280;18281;51.364;9.566;2022-08-06T05:52:45;101029.84;;;10.00;100.00
31681;BME280;18281;51.364;9.566;2022-08-06T05:55:21;101036.06;;;10.21;100.00
31681;BME280;18281;51.364;9.566;2022-08-06T05:58:00;101041.75;;;10.32;100.00
31681;BME280;18281;51.364;9.566;2022-08-06T06:00:28;101036.69;;;10.50;100.00
31681;BME280;18281;51.364;9.566;2022-08-06T06:02:57;101033.69;;;10.61;100.00
31681;BME280;18281;51.364;9.566;2022-08-06T06:05:24;101034.16;;;10.70;100.00
31681;BME280;18281;51.364;9.566;2022-08-06T06:07:50;101038.88;;;10.84;100.00
31681;BME280;18281;51.364;9.566;2022-08-06T06:10:17;101040.69;;;10.60;100.00
31681;BME280;18281;51.364;9.566;2022-08-06T06:12:43;101038.44;;;10.73;100.00
31681;BME280;18281;51.364;9.566;2022-08-06T06:15:11;101036.50;;;11.00;99.36
31681;BME280;18281;51.364;9.566;2022-08-06T06:28:58;101055.41;;;11.51;97.83
31681;BME280;18281;51.364;9.566;2022-08-06T06:32:00;101051.38;;;12.04;96.92
31681;BME280;18281;51.364;9.566;2022-08-06T06:34:45;101045.56;;;12.55;94.68
31681;BME280;18281;51.364;9.566;2022-08-06T06:39:58;101058.63;;;11.79;96.51
31681;BME280;18281;51.364;9.566;2022-08-06T06:43:00;101060.19;;;11.83;96.81
31681;BME280;18281;51.364;9.566;2022-08-06T06:50:54;101052.50;;;13.29;88.18
31681;BME280;18281;51.364;9.566;2022-08-06T06:53:23;101069.59;;;11.88;92.74
31681;BME280;18281;51.364;9.566;2022-08-06T06:55:54;101068.09;;;11.62;95.68
31681;BME280;18281;51.364;9.566;2022-08-06T06:58:32;101062.25;;;11.76;96.78
31681;BME280;18281;51.364;9.566;2022-08-06T07:00:58;101061.66;;;11.90;95.30
31681;BME280;18281;51.364;9.566;2022-08-06T07:03:25;101066.41;;;12.21;94.40
31681;BME280;18281;51.364;9.566;2022-08-06T07:05:54;101062.53;;;11.90;94.50
31681;BME280;18281;51.364;9.566;2022-08-06T07:08:21;101064.88;;;11.55;94.47
31681;BME280;18281;51.364;9.566;2022-08-06T07:10:49;101066.16;;;11.86;95.56
31681;BME280;18281;51.364;9.566;2022-08-06T07:13:16;101068.69;;;11.69;94.77
31681;BME280;18281;51.364;9.566;2022-08-06T07:15:43;101068.78;;;11.86;93.59
31681;BME280;18281;51.364;9.566;2022-08-06T07:18:09;101080.84;;;11.71;94.08
31681;BME280;18281;51.364;9.566;2022-08-06T07:20:37;101079.47;;;11.63;92.95
31681;BME280;18281;51.364;9.566;2022-08-06T07:23:07;101071.66;;;12.59;91.35
31681;BME280;18281;51.364;9.566;2022-08-06T07:25:40;101071.38;;;12.47;90.57
31681;BME280;18281;51.364;9.566;2022-08-06T07:28:08;101071.50;;;13.01;89.83
31681;BME280;18281;51.364;9.566;2022-08-06T07:30:35;101077.00;;;13.14;87.99
31681;BME280;18281;51.364;9.566;2022-08-06T07:33:02;101080.69;;;12.73;88.65
31681;BME280;18281;51.364;9.566;2022-08-06T07:35:28;101076.78;;;13.01;87.36
31681;BME280;18281;51.364;9.566;2022-08-06T07:38:00;101076.03;;;13.51;87.05
31681;BME280;18281;51.364;9.566;2022-08-06T07:40:30;101080.34;;;13.52;87.57
31681;BME280;18281;51.364;9.566;2022-08-06T07:43:02;101086.13;;;13.61;84.92
31681;BME280;18281;51.364;9.566;2022-08-06T07:45:32;101080.91;;;14.10;85.04
31681;BME280;18281;51.364;9.566;2022-08-06T07:48:00;101086.19;;;14.28;84.16
31681;BME280;18281;51.364;9.566;2022-08-06T07:50:29;101083.47;;;14.45;83.54
31681;BME280;18281;51.364;9.566;2022-08-06T07:52:57;101085.41;;;13.74;82.84
31681;BME280;18281;51.364;9.566;2022-08-06T07:55:24;101076.41;;;13.43;83.11
31681;BME280;18281;51.364;9.566;2022-08-06T07:57:53;101081.84;;;13.58;83.31
31681;BME280;18281;51.364;9.566;2022-08-06T08:00:18;101084.81;;;14.52;82.99
31681;BME280;18281;51.364;9.566;2022-08-06T08:02:44;101078.03;;;14.15;81.88
31681;BME280;18281;51.364;9.566;2022-08-06T08:05:30;101078.00;;;14.64;81.43
31681;BME280;18281;51.364;9.566;2022-08-06T08:08:35;101079.72;;;14.65;78.85
31681;BME280;18281;51.364;9.566;2022-08-06T08:11:01;101082.44;;;14.32;79.39
31681;BME280;18281;51.364;9.566;2022-08-06T08:13:26;101081.66;;;13.96;79.26
31681;BME280;18281;51.364;9.566;2022-08-06T08:15:54;101083.59;;;14.26;79.71
31681;BME280;18281;51.364;9.566;2022-08-06T08:18:20;101075.13;;;13.86;79.32
31681;BME280;18281;51.364;9.566;2022-08-06T08:20:46;101077.56;;;14.24;79.88
31681;BME280;18281;51.364;9.566;2022-08-06T08:23:14;101080.16;;;14.89;78.33
31681;BME280;18281;51.364;9.566;2022-08-06T08:25:40;101066.16;;;15.34;77.42
31681;BME280;18281;51.364;9.566;2022-08-06T08:28:06;101068.41;;;15.40;76.68
31681;BME280;18281;51.364;9.566;2022-08-06T08:30:33;101072.09;;;15.37;75.32
31681;BME280;18281;51.364;9.566;2022-08-06T08:33:01;101068.53;;;15.08;77.39
31681;BME280;18281;51.364;9.566;2022-08-06T08:35:27;101075.97;;;14.85;77.49
31681;BME280;18281;51.364;9.566;2022-08-06T08:37:52;101077.06;;;14.65;76.63
31681;BME280;18281;51.364;9.566;2022-08-06T08:40:20;101075.34;;;14.48;77.47
31681;BME280;18281;51.364;9.566;2022-08-06T08:42:50;101077.50;;;14.89;77.35
31681;BME280;18281;51.364;9.566;2022-08-06T08:45:19;101078.50;;;14.71;77.50
31681;BME280;18281;51.364;9.566;2022-08-06T08:47:53;101084.63;;;14.55;76.92
31681;BME280;18281;51.364;9.566;2022-08-06T08:50:22;101091.81;;;14.37;78.65
31681;BME280;18281;51.364;9.566;2022-08-06T08:52:49;101090.84;;;14.22;77.04
31681;BME280;18281;51.364;9.566;2022-08-06T08:55:16;101085.28;;;14.11;76.16
31681;BME280;18281;51.364;9.566;2022-08-06T08:57:43;101088.25;;;14.54;76.58
31681;BME280;18281;51.364;9.566;2022-08-06T09:00:12;101085.81;;;14.34;76.79
31681;BME280;18281;51.364;9.566;2022-08-06T09:02:38;101088.38;;;14.35;77.11
31681;BME280;18281;51.364;9.566;2022-08-06T09:05:04;101081.94;;;14.89;77.48
31681;BME280;18281;51.364;9.566;2022-08-06T09:07:30;101083.09;;;15.15;75.34
31681;BME280;18281;51.364;9.566;2022-08-06T09:09:58;101076.38;;;15.54;74.98
31681;BME280;18281;51.364;9.566;2022-08-06T09:12:24;101073.56;;;14.97;73.29
31681;BME280;18281;51.364;9.566;2022-08-06T09:14:50;101067.06;;;15.63;72.84
31681;BME280;18281;51.364;9.566;2022-08-06T09:17:15;101078.25;;;15.83;72.52
31681;BME280;18281;51.364;9.566;2022-08-06T09:19:42;101079.00;;;16.14;71.74
31681;BME280;18281;51.364;9.566;2022-08-06T09:22:10;101075.50;;;16.27;70.21
31681;BME280;18281;51.364;9.566;2022-08-06T09:24:37;101074.56;;;16.29;69.16
31681;BME280;18281;51.364;9.566;2022-08-06T09:27:05;101075.03;;;16.06;69.96
31681;BME280;18281;51.364;9.566;2022-08-06T09:29:32;101075.41;;;15.41;70.03
31681;BME280;18281;51.364;9.566;2022-08-06T09:31:58;101082.72;;;15.52;71.03
31681;BME280;18281;51.364;9.566;2022-08-06T09:34:35;101069.91;;;15.30;71.68
31681;BME280;18281;51.364;9.566;2022-08-06T09:37:01;101074.66;;;15.39;72.47
31681;BME280;18281;51.364;9.566;2022-08-06T09:39:45;101079.56;;;15.45;71.32
31681;BME280;18281;51.364;9.566;2022-08-06T09:42:10;101068.84;;;15.63;71.49
31681;BME280;18281;51.364;9.566;2022-08-06T09:44:36;101071.34;;;15.80;71.02
31681;BME280;18281;51.364;9.566;2022-08-06T09:47:02;101075.34;;;16.02;69.10
31681;BME280;18281;51.364;9.566;2022-08-06T09:49:43;101073.75;;;15.99;69.83
31681;BME280;18281;51.364;9.566;2022-08-06T09:54:38;101072.91;;;16.40;68.96
31681;BME280;18281;51.364;9.566;2022-08-06T09:57:04;101071.81;;;16.30;67.57
31681;BME280;18281;51.364;9.566;2022-08-06T09:59:44;101071.03;;;16.84;67.21
31681;BME280;18281;51.364;9.566;2022-08-06T10:02:17;101067.44;;;16.85;66.17
31681;BME280;18281;51.364;9.566;2022-08-06T10:04:44;101062.19;;;16.71;66.38
31681;BME280;18281;51.364;9.566;2022-08-06T10:07:10;101061.94;;;16.61;66.86
31681;BME280;18281;51.364;9.566;2022-08-06T10:09:50;101065.38;;;15.91;67.63
31681;BME280;18281;51.364;9.566;2022-08-06T10:12:18;101062.25;;;16.27;67.91
31681;BME280;18281;51.364;9.566;2022-08-06T10:14:44;101068.88;;;16.35;67.31
31681;BME280;18281;51.364;9.566;2022-08-06T10:17:15;101062.81;;;17.02;66.41
31681;BME280;18281;51.364;9.566;2022-08-06T10:19:44;101070.66;;;16.90;65.52
31681;BME280;18281;51.364;9.566;2022-08-06T10:22:15;101060.00;;;17.45;66.28
31681;BME280;18281;51.364;9.566;2022-08-06T10:24:46;101063.31;;;16.81;64.91
31681;BME280;18281;51.364;9.566;2022-08-06T10:27:16;101062.09;;;16.72;64.58
31681;BME280;18281;51.364;9.566;2022-08-06T10:29:48;101066.28;;;16.89;64.37
31681;BME280;18281;51.364;9.566;2022-08-06T10:35:04;101058.81;;;17.36;64.46
31681;BME280;18281;51.364;9.566;2022-08-06T10:37:38;101060.97;;;17.30;64.81
31681;BME280;18281;51.364;9.566;2022-08-06T10:40:09;101068.06;;;16.76;65.11
31681;BME280;18281;51.364;9.566;2022-08-06T10:42:35;101062.44;;;16.53;65.42
31681;BME280;18281;51.364;9.566;2022-08-06T10:45:01;101057.97;;;16.54;65.68
31681;BME280;18281;51.364;9.566;2022-08-06T10:47:27;101054.09;;;16.45;65.69
31681;BME280;18281;51.364;9.566;2022-08-06T10:49:53;101059.97;;;16.36;65.09
31681;BME280;18281;51.364;9.566;2022-08-06T10:52:19;101056.91;;;16.56;64.95
31681;BME280;18281;51.364;9.566;2022-08-06T10:54:45;101057.47;;;17.16;64.86
31681;BME280;18281;51.364;9.566;2022-08-06T10:57:11;101062.09;;;17.40;64.16
31681;BME280;18281;51.364;9.566;2022-08-06T10:59:40;101053.34;;;17.25;63.42
31681;BME280;18281;51.364;9.566;2022-08-06T11:05:01;101063.91;;;17.78;62.27
31681;BME280;18281;51.364;9.566;2022-08-06T11:08:03;101066.25;;;17.17;63.31
31681;BME280;18281;51.364;9.566;2022-08-06T11:15:57;101052.63;;;16.68;64.36
31681;BME280;18281;51.364;9.566;2022-08-06T11:18:23;101061.44;;;16.69;63.83
31681;BME280;18281;51.364;9.566;2022-08-06T11:20:50;101065.25;;;16.65;65.33
31681;BME280;18281;51.364;9.566;2022-08-06T11:25:53;101056.84;;;17.25;63.19
31681;BME280;18281;51.364;9.566;2022-08-06T11:31:07;101050.84;;;17.88;62.26
31681;BME280;18281;51.364;9.566;2022-08-06T11:36:05;101056.16;;;17.75;62.20
31681;BME280;18281;51.364;9.566;2022-08-06T11:41:26;101052.13;;;17.56;63.30
31681;BME280;18281;51.364;9.566;2022-08-06T11:51:50;101038.13;;;17.80;61.87
31681;BME280;18281;51.364;9.566;2022-08-06T11:54:27;101046.59;;;18.48;61.90
31681;BME280;18281;51.364;9.566;2022-08-06T12:02:07;101040.38;;;19.09;61.06
31681;BME280;18281;51.364;9.566;2022-08-06T12:07:20;101049.78;;;17.90;60.71
31681;BME280;18281;51.364;9.566;2022-08-06T12:20:37;101043.03;;;18.10;60.70
31681;BME280;18281;51.364;9.566;2022-08-06T12:23:14;101043.81;;;18.25;60.40
31681;BME280;18281;51.364;9.566;2022-08-06T12:25:44;101031.94;;;18.42;61.14
31681;BME280;18281;51.364;9.566;2022-08-06T12:28:12;101035.94;;;18.11;59.35
31681;BME280;18281;51.364;9.566;2022-08-06T12:30:41;101029.97;;;18.07;60.27
31681;BME280;18281;51.364;9.566;2022-08-06T12:35:53;101019.72;;;17.77;61.26
31681;BME280;18281;51.364;9.566;2022-08-06T12:38:21;101029.28;;;17.80;61.10
31681;BME280;18281;51.364;9.566;2022-08-06T12:40:57;101032.59;;;17.57;60.64
31681;BME280;18281;51.364;9.566;2022-08-06T12:43:24;101035.75;;;17.37;61.13
31681;BME280;18281;51.364;9.566;2022-08-06T12:45:57;101034.22;;;17.33;60.97
31681;BME280;18281;51.364;9.566;2022-08-06T12:48:23;101028.28;;;18.06;60.18
31681;BME280;18281;51.364;9.566;2022-08-06T12:50:50;101015.56;;;17.99;59.59
31681;BME280;18281;51.364;9.566;2022-08-06T12:53:25;101015.72;;;18.21;59.68
31681;BME280;18281;51.364;9.566;2022-08-06T12:55:53;101013.28;;;18.80;60.51
31681;BME280;18281;51.364;9.566;2022-08-06T12:58:24;101007.56;;;18.49;58.86
31681;BME280;18281;51.364;9.566;2022-08-06T13:00:54;100999.19;;;18.90;58.90
31681;BME280;18281;51.364;9.566;2022-08-06T13:03:23;101001.22;;;19.22;58.84
31681;BME280;18281;51.364;9.566;2022-08-06T13:05:50;100998.09;;;19.40;58.73
31681;BME280;18281;51.364;9.566;2022-08-06T13:08:19;101000.31;;;18.75;58.96
31681;BME280;18281;51.364;9.566;2022-08-06T13:10:53;100998.63;;;18.98;59.10
31681;BME280;18281;51.364;9.566;2022-08-06T13:13:20;101002.50;;;18.81;58.82
31681;BME280;18281;51.364;9.566;2022-08-06T13:16:06;101002.97;;;18.51;58.74
31681;BME280;18281;51.364;9.566;2022-08-06T13:18:33;101002.78;;;18.17;59.16
31681;BME280;18281;51.364;9.566;2022-08-06T13:20:59;101002.56;;;18.07;59.13
31681;BME280;18281;51.364;9.566;2022-08-06T13:23:35;101007.38;;;18.02;58.63
31681;BME280;18281;51.364;9.566;2022-08-06T13:26:17;101005.50;;;17.52;58.72
31681;BME280;18281;51.364;9.566;2022-08-06T13:29:04;101007.19;;;17.66;58.11
31681;BME280;18281;51.364;9.566;2022-08-06T13:31:36;100994.50;;;17.96;57.82
31681;BME280;18281;51.364;9.566;2022-08-06T13:34:04;100991.31;;;17.90;59.14
31681;BME280;18281;51.364;9.566;2022-08-06T13:36:32;100980.84;;;18.26;59.57
31681;BME280;18281;51.364;9.566;2022-08-06T13:38:58;100991.09;;;18.68;59.59
31681;BME280;18281;51.364;9.566;2022-08-06T13:41:29;100992.06;;;18.42;59.06
31681;BME280;18281;51.364;9.566;2022-08-06T13:43:58;100987.09;;;18.38;59.09
31681;BME280;18281;51.364;9.566;2022-08-06T13:46:26;100985.06;;;18.66;57.46
31681;BME280;18281;51.364;9.566;2022-08-06T13:48:53;100970.38;;;18.36;57.70
31681;BME280;18281;51.364;9.566;2022-08-06T13:51:21;100977.25;;;18.51;57.39
31681;BME280;18281;51.364;9.566;2022-08-06T13:53:47;100965.81;;;18.62;57.41
31681;BME280;18281;51.364;9.566;2022-08-06T13:56:16;100969.78;;;18.56;57.74
31681;BME280;18281;51.364;9.566;2022-08-06T13:58:42;100961.94;;;18.90;58.34
31681;BME280;18281;51.364;9.566;2022-08-06T14:01:11;100956.19;;;19.08;58.53
31681;BME280;18281;51.364;9.566;2022-08-06T14:03:38;100968.84;;;18.69;57.65
31681;BME280;18281;51.364;9.566;2022-08-06T14:06:03;100974.50;;;18.16;57.89
31681;BME280;18281;51.364;9.566;2022-08-06T14:08:29;100969.41;;;18.00;58.67
31681;BME280;18281;51.364;9.566;2022-08-06T14:10:55;100975.56;;;18.13;58.70
31681;BME280;18281;51.364;9.566;2022-08-06T14:13:21;100977.66;;;18.34;59.31
31681;BME280;18281;51.364;9.566;2022-08-06T14:15:49;100973.53;;;18.17;58.60
31681;BME280;18281;51.364;9.566;2022-08-06T14:18:19;100973.59;;;18.28;57.81
31681;BME280;18281;51.364;9.566;2022-08-06T14:20:45;100971.34;;;18.35;57.64